Time;durP1;ratioP1;P1;durP2;ratioP2;P2;SDS_P1;SDS_P2;PMS_P1;PMS_P2;Temp;Humidity;BMP_temperature;BMP_pressure;BME280_temperature;BME280_humidity;BME280_pressure;Samples;Min_cycle;Max_cycle;Signal;HPM_P1;HPM_P2
2022/02/08 00:00:54;;;;;;;9.13;2.10;;;;;;;;;;6367428;27;20047;-74
2022/02/08 00:03:59;;;;;;;;;;;;;;;;;;6368805;27;20058;-75
2022/02/08 00:07:06;;;;;;;5.28;1.63;;;;;;;;;;6369704;27;19980;-74
2022/02/08 00:10:09;;;;;;;7.90;2.00;;;;;;;;;;6368577;27;20043;-75
2022/02/08 00:13:12;;;;;;;9.23;1.90;;;;;;;;;;6369224;27;20123;-74
2022/02/08 00:16:15;;;;;;;11.45;2.72;;;;;;;;;;6367755;27;20043;-74
2022/02/08 00:19:19;;;;;;;125.22;51.10;;;;;;;;;;6369046;27;20053;-74
2022/02/08 00:22:24;;;;;;;9.77;2.20;;;;;;;;;;6368723;27;20043;-74
2022/02/08 00:25:27;;;;;;;7.15;2.20;;;;;;;;;;6369185;27;20043;-74
2022/02/08 00:28:31;;;;;;;11.52;2.17;;;;;;;;;;6368870;27;20057;-74
2022/02/08 00:31:34;;;;;;;7.35;2.10;;;;;;;;;;6367892;27;20168;-74
2022/02/08 00:34:37;;;;;;;9.88;2.15;;;;;;;;;;6367764;27;20047;-73
2022/02/08 00:37:41;;;;;;;13.60;3.28;;;;;;;;;;6367190;27;20088;-73
2022/02/08 00:40:48;;;;;;;7.35;2.33;;;;;;;;;;6366842;27;20058;-73
2022/02/08 00:43:57;;;;;;;9.07;2.78;;;;;;;;;;6368390;27;20203;-73
2022/02/08 00:47:14;;;;;;;8.50;2.10;;;;;;;;;;6367202;27;20047;-73
2022/02/08 00:50:17;;;;;;;6.65;1.80;;;;;;;;;;6366910;27;20122;-74
2022/02/08 00:53:23;;;;;;;10.32;2.05;;;;;;;;;;6366210;27;20096;-74
2022/02/08 00:56:28;;;;;;;10.27;3.05;;;;;;;;;;6366393;27;20050;-73
2022/02/08 00:59:35;;;;;;;10.63;2.75;;;;;;;;;;6366430;27;20051;-73
2022/02/08 01:02:39;;;;;;;11.85;2.35;;;;;;;;;;6366453;27;20043;-73
2022/02/08 01:05:49;;;;;;;6.38;2.50;;;;;;;;;;6366369;27;20493;-73
2022/02/08 01:09:06;;;;;;;8.20;2.03;;;;;;;;;;6366994;27;20046;-73
2022/02/08 01:12:10;;;;;;;7.77;1.90;;;;;;;;;;6366530;27;20096;-74
2022/02/08 01:15:14;;;;;;;9.50;2.08;;;;;;;;;;6367592;27;20494;-73
2022/02/08 01:18:20;;;;;;;9.40;2.00;;;;;;;;;;6367084;27;20043;-72
2022/02/08 01:21:24;;;;;;;7.25;2.00;;;;;;;;;;6366514;27;20474;-73
2022/02/08 01:24:29;;;;;;;8.93;2.78;;;;;;;;;;6366682;27;20054;-74
2022/02/08 01:27:36;;;;;;;10.85;2.22;;;;;;;;;;6363226;28;20068;-74
2022/02/08 01:30:59;;;;;;;6.90;2.30;;;;;;;;;;6363775;28;20095;-74
2022/02/08 01:34:13;;;;;;;8.55;2.35;;;;;;;;;;6363399;28;20047;-73
2022/02/08 01:37:25;;;;;;;11.38;2.75;;;;;;;;;;6364604;27;20043;-73
2022/02/08 01:40:46;;;;;;;7.78;2.53;;;;;;;;;;6365971;27;20050;-73
2022/02/08 01:44:12;;;;;;;13.02;2.45;;;;;;;;;;6365699;28;20450;-74
2022/02/08 01:47:25;;;;;;;7.57;3.08;;;;;;;;;;6365962;28;20074;-73
2022/02/08 01:50:31;;;;;;;10.82;2.10;;;;;;;;;;6365984;28;20043;-74
2022/02/08 01:53:37;;;;;;;18.58;4.40;;;;;;;;;;6364125;28;20062;-74
2022/02/08 01:56:42;;;;;;;9.52;1.90;;;;;;;;;;6364769;28;20522;-74
2022/02/08 01:59:47;;;;;;;10.93;1.80;;;;;;;;;;6365938;28;20213;-75
2022/02/08 02:02:50;;;;;;;5.40;1.90;;;;;;;;;;6366538;27;20051;-73
2022/02/08 02:05:58;;;;;;;7.47;1.98;;;;;;;;;;6366050;28;20401;-73
2022/02/08 02:09:07;;;;;;;5.95;2.15;;;;;;;;;;6369846;27;20062;-73
2022/02/08 02:12:14;;;;;;;9.93;1.95;;;;;;;;;;6370629;27;20039;-73
2022/02/08 02:15:17;;;;;;;16.03;2.60;;;;;;;;;;6370252;27;20386;-75
2022/02/08 02:18:21;;;;;;;8.82;2.25;;;;;;;;;;6370802;27;20283;-73
2022/02/08 02:21:25;;;;;;;8.60;2.03;;;;;;;;;;6369240;27;20062;-73
2022/02/08 02:24:30;;;;;;;7.47;1.88;;;;;;;;;;6367718;27;20066;-73
2022/02/08 02:27:34;;;;;;;8.43;1.67;;;;;;;;;;6370759;27;20401;-73
2022/02/08 02:30:37;;;;;;;11.10;2.15;;;;;;;;;;6370066;27;20126;-73
2022/02/08 02:33:43;;;;;;;8.30;2.10;;;;;;;;;;6370012;27;20058;-73
2022/02/08 02:36:47;;;;;;;10.40;1.88;;;;;;;;;;6369904;27;20138;-73
2022/02/08 02:39:54;;;;;;;10.05;2.03;;;;;;;;;;6370358;27;20409;-73
2022/02/08 02:42:58;;;;;;;13.75;2.22;;;;;;;;;;6368030;27;20505;-73
2022/02/08 02:46:02;;;;;;;9.23;2.10;;;;;;;;;;6366389;27;20043;-73
2022/02/08 02:49:07;;;;;;;17.30;3.60;;;;;;;;;;6367516;27;20051;-74
2022/02/08 02:52:11;;;;;;;8.43;1.80;;;;;;;;;;6369523;27;20043;-74
2022/02/08 02:55:19;;;;;;;8.30;2.00;;;;;;;;;;6367591;27;20506;-75
2022/02/08 02:58:28;;;;;;;5.18;1.55;;;;;;;;;;6369118;27;20119;-76
2022/02/08 03:01:36;;;;;;;5.45;1.70;;;;;;;;;;6370972;27;20043;-74
2022/02/08 03:04:52;;;;;;;10.68;3.08;;;;;;;;;;6369807;27;20049;-74
2022/02/08 03:18:31;;;;;;;6.47;1.83;;;;;;;;;;6369065;27;20061;-74
2022/02/08 03:21:36;;;;;;;10.70;1.90;;;;;;;;;;6368749;27;20522;-75
2022/02/08 03:24:40;;;;;;;7.40;1.92;;;;;;;;;;6368822;27;20084;-73
2022/02/08 03:27:45;;;;;;;10.57;3.03;;;;;;;;;;6369069;27;20028;-72
2022/02/08 03:30:48;;;;;;;10.25;1.60;;;;;;;;;;6369159;27;20047;-73
2022/02/08 03:33:53;;;;;;;9.23;2.30;;;;;;;;;;6368102;27;20039;-73
2022/02/08 03:36:56;;;;;;;8.63;1.70;;;;;;;;;;6369104;27;20070;-73
2022/02/08 03:40:05;;;;;;;9.95;2.50;;;;;;;;;;6368498;27;20050;-72
2022/02/08 03:43:28;;;;;;;7.55;2.10;;;;;;;;;;6368328;27;20118;-72
2022/02/08 03:46:33;;;;;;;9.13;2.53;;;;;;;;;;6368045;27;20039;-72
2022/02/08 03:49:36;;;;;;;10.75;1.95;;;;;;;;;;6370004;27;20051;-72
2022/02/08 03:52:42;;;;;;;9.73;2.13;;;;;;;;;;6368270;27;20046;-75
2022/02/08 03:55:48;;;;;;;11.25;2.20;;;;;;;;;;6369203;27;20055;-73
2022/02/08 03:58:57;;;;;;;9.60;1.85;;;;;;;;;;6368244;27;20055;-73
2022/02/08 04:05:28;;;;;;;11.68;2.45;;;;;;;;;;6369217;27;20047;-73
2022/02/08 04:08:34;;;;;;;8.65;1.75;;;;;;;;;;6368539;27;20438;-73
2022/02/08 04:11:50;;;;;;;10.82;2.10;;;;;;;;;;6369517;27;20038;-73
2022/02/08 04:15:08;;;;;;;;;;;;;;;;;;6369728;27;20050;-73
2022/02/08 04:38:24;;;;;;;13.48;2.65;;;;;;;;;;6368586;27;20043;-73
2022/02/08 04:41:28;;;;;;;12.88;2.30;;;;;;;;;;6368753;27;20051;-74
2022/02/08 04:44:40;;;;;;;13.07;2.45;;;;;;;;;;6368299;27;20043;-74
2022/02/08 04:47:44;;;;;;;9.57;2.30;;;;;;;;;;6367671;27;20501;-74
2022/02/08 04:50:53;;;;;;;9.95;2.20;;;;;;;;;;6368666;27;20050;-74
2022/02/08 04:54:05;;;;;;;9.43;1.55;;;;;;;;;;6368156;27;20257;-74
2022/02/08 04:57:16;;;;;;;9.95;1.70;;;;;;;;;;6367659;27;20375;-75
2022/02/08 05:00:26;;;;;;;8.20;2.10;;;;;;;;;;6367773;27;20055;-75
2022/02/08 05:37:23;;;;;;;13.93;2.70;;;;;;;;;;6367500;27;20035;-73
2022/02/08 05:44:24;;;;;;;11.95;1.90;;;;;;;;;;6371022;27;20054;-74
2022/02/08 05:47:28;;;;;;;6.50;1.60;;;;;;;;;;6372834;27;20397;-75
2022/02/08 05:50:41;;;;;;;10.60;2.03;;;;;;;;;;6372952;27;20050;-75
2022/02/08 05:53:46;;;;;;;4.55;1.33;;;;;;;;;;6372523;27;20051;-75
2022/02/08 05:56:53;;;;;;;11.75;1.73;;;;;;;;;;6371935;27;20054;-75
2022/02/08 05:59:56;;;;;;;10.60;3.00;;;;;;;;;;6372621;27;20051;-75
2022/02/08 06:03:02;;;;;;;8.02;1.73;;;;;;;;;;6372128;27;20043;-74
2022/02/08 06:06:13;;;;;;;7.47;1.40;;;;;;;;;;6370299;27;20504;-76
2022/02/08 06:09:18;;;;;;;6.45;1.30;;;;;;;;;;6353904;27;20541;-75
2022/02/08 06:12:26;;;;;;;10.25;1.73;;;;;;;;;;6370792;27;20047;-75
2022/02/08 06:15:39;;;;;;;9.20;1.80;;;;;;;;;;6370524;27;20079;-74
2022/02/08 06:18:43;;;;;;;10.88;2.15;;;;;;;;;;6369854;27;20043;-74
2022/02/08 06:21:46;;;;;;;8.38;1.38;;;;;;;;;;6372156;27;20396;-74
2022/02/08 06:24:49;;;;;;;5.50;1.20;;;;;;;;;;6371627;27;20039;-75
2022/02/08 06:27:54;;;;;;;9.15;2.05;;;;;;;;;;6369431;27;20035;-75
2022/02/08 06:30:57;;;;;;;9.98;1.60;;;;;;;;;;6370041;27;20039;-75
2022/02/08 06:34:00;;;;;;;12.57;1.95;;;;;;;;;;6371476;27;20165;-75
2022/02/08 06:37:09;;;;;;;6.88;1.50;;;;;;;;;;6371131;27;20043;-75
2022/02/08 06:40:12;;;;;;;11.35;1.60;;;;;;;;;;6369537;27;20126;-75
2022/02/08 06:43:20;;;;;;;9.93;1.60;;;;;;;;;;6370278;27;20454;-74
2022/02/08 06:46:23;;;;;;;13.05;2.40;;;;;;;;;;6371133;27;20511;-73
2022/02/08 06:49:27;;;;;;;8.80;1.98;;;;;;;;;;6369067;27;20043;-74
2022/02/08 06:52:30;;;;;;;8.90;1.83;;;;;;;;;;6371471;27;20121;-74
2022/02/08 06:55:34;;;;;;;8.50;1.48;;;;;;;;;;6369562;27;20172;-74
2022/02/08 06:58:48;;;;;;;7.93;1.40;;;;;;;;;;6370289;27;20051;-74
2022/02/08 07:01:54;;;;;;;6.90;1.77;;;;;;;;;;6370215;27;20097;-75
2022/02/08 07:04:57;;;;;;;9.57;1.80;;;;;;;;;;6369727;27;20042;-76
2022/02/08 07:08:01;;;;;;;5.75;1.60;;;;;;;;;;6368906;27;20050;-75
2022/02/08 07:11:06;;;;;;;8.13;1.50;;;;;;;;;;6368641;27;20504;-75
2022/02/08 07:14:10;;;;;;;;;;;;;;;;;;6372321;27;20051;-75
2022/02/08 07:17:17;;;;;;;6.40;1.50;;;;;;;;;;6368686;27;19927;-76
2022/02/08 07:20:20;;;;;;;7.82;1.77;;;;;;;;;;6369269;27;20058;-75
2022/02/08 07:23:23;;;;;;;8.38;1.83;;;;;;;;;;6368882;27;20576;-78
2022/02/08 07:26:30;;;;;;;8.52;1.70;;;;;;;;;;6369477;27;20538;-77
2022/02/08 07:29:38;;;;;;;8.23;1.83;;;;;;;;;;6370599;27;20051;-77
2022/02/08 07:32:46;;;;;;;10.30;2.10;;;;;;;;;;6368206;27;20489;-77
2022/02/08 07:35:54;;;;;;;11.43;1.60;;;;;;;;;;6369446;27;20043;-76
2022/02/08 07:39:00;;;;;;;9.18;1.70;;;;;;;;;;6368721;27;20510;-78
2022/02/08 07:42:04;;;;;;;8.55;2.00;;;;;;;;;;6368251;27;20650;-77
2022/02/08 07:45:11;;;;;;;8.30;1.73;;;;;;;;;;6368179;27;20047;-77
2022/02/08 07:48:16;;;;;;;16.38;1.80;;;;;;;;;;6334374;27;20486;-76
2022/02/08 07:51:25;;;;;;;6.97;1.92;;;;;;;;;;6369523;27;20039;-78
2022/02/08 07:54:30;;;;;;;9.40;1.77;;;;;;;;;;6369347;27;20504;-76
2022/02/08 07:57:36;;;;;;;12.65;3.15;;;;;;;;;;6368294;27;20074;-76
2022/02/08 08:00:40;;;;;;;7.55;2.15;;;;;;;;;;6369603;27;20057;-77
2022/02/08 08:03:45;;;;;;;10.07;1.60;;;;;;;;;;6367504;27;20485;-77
2022/02/08 08:06:48;;;;;;;7.68;2.00;;;;;;;;;;6367621;27;20051;-79
2022/02/08 08:09:54;;;;;;;54.65;25.25;;;;;;;;;;6367376;27;20099;-78
2022/02/08 08:12:57;;;;;;;10.30;1.67;;;;;;;;;;6369649;27;20151;-77
2022/02/08 08:16:13;;;;;;;9.32;1.70;;;;;;;;;;6366252;27;20405;-79
2022/02/08 08:22:42;;;;;;;10.50;1.88;;;;;;;;;;6363434;27;20510;-79
2022/02/08 08:25:50;;;;;;;9.73;2.38;;;;;;;;;;6364728;27;20039;-80
2022/02/08 08:28:54;;;;;;;10.00;2.38;;;;;;;;;;6364324;27;20064;-80
2022/02/08 08:31:57;;;;;;;10.40;2.28;;;;;;;;;;6368100;27;20397;-80
2022/02/08 08:35:04;;;;;;;8.00;1.90;;;;;;;;;;6350037;27;20066;-79
2022/02/08 08:38:15;;;;;;;7.85;1.52;;;;;;;;;;6349119;27;20055;-78
2022/02/08 08:41:27;;;;;;;10.57;1.63;;;;;;;;;;6367608;27;20051;-79
2022/02/08 08:52:01;;;;;;;9.25;1.75;;;;;;;;;;6366870;27;20039;-77
2022/02/08 08:55:07;;;;;;;13.32;2.22;;;;;;;;;;6366522;27;20078;-78
2022/02/08 08:58:11;;;;;;;8.63;2.33;;;;;;;;;;6365945;27;20062;-76
2022/02/08 09:01:15;;;;;;;8.82;2.03;;;;;;;;;;6365427;27;20072;-75
2022/02/08 09:04:19;;;;;;;8.30;1.73;;;;;;;;;;6365662;27;20478;-74
2022/02/08 09:07:25;;;;;;;8.27;1.80;;;;;;;;;;6366815;27;20493;-76
2022/02/08 09:10:38;;;;;;;7.22;1.90;;;;;;;;;;6349182;27;20142;-76
2022/02/08 09:13:53;;;;;;;9.87;1.67;;;;;;;;;;6366420;27;20061;-76
2022/02/08 09:17:14;;;;;;;9.27;1.95;;;;;;;;;;6366091;27;20036;-78
2022/02/08 09:24:12;;;;;;;10.15;2.17;;;;;;;;;;6366332;28;20043;-77
2022/02/08 09:30:45;;;;;;;10.98;1.80;;;;;;;;;;6349876;28;20055;-77
2022/02/08 09:33:48;;;;;;;13.63;3.15;;;;;;;;;;6365633;28;20043;-77
2022/02/08 09:36:53;;;;;;;9.25;2.88;;;;;;;;;;6367842;27;20127;-76
2022/02/08 09:39:58;;;;;;;5.80;1.48;;;;;;;;;;6365533;28;20047;-75
2022/02/08 09:43:04;;;;;;;9.27;1.80;;;;;;;;;;6364954;28;20047;-75
2022/02/08 09:46:10;;;;;;;10.32;1.75;;;;;;;;;;6367508;27;20050;-76
2022/02/08 09:49:13;;;;;;;7.05;2.05;;;;;;;;;;6365592;28;20118;-77
2022/02/08 09:52:19;;;;;;;6.35;1.95;;;;;;;;;;6366543;27;20063;-77
2022/02/08 09:55:27;;;;;;;5.50;1.90;;;;;;;;;;6366988;27;20096;-75
2022/02/08 09:58:31;;;;;;;8.45;2.03;;;;;;;;;;6367045;27;20062;-75
2022/02/08 10:01:37;;;;;;;7.78;2.15;;;;;;;;;;6365805;28;20172;-76
2022/02/08 10:04:41;;;;;;;9.18;2.47;;;;;;;;;;6364888;28;20077;-77
2022/02/08 10:07:44;;;;;;;6.15;1.90;;;;;;;;;;6367308;27;20051;-75
2022/02/08 10:10:48;;;;;;;6.85;1.80;;;;;;;;;;6366897;27;20039;-76
2022/02/08 10:14:01;;;;;;;8.68;2.40;;;;;;;;;;6366201;27;20477;-76
2022/02/08 10:23:51;;;;;;;6.35;2.38;;;;;;;;;;6343164;27;20055;-75
2022/02/08 10:27:03;;;;;;;7.30;2.30;;;;;;;;;;6364725;28;20043;-75
2022/02/08 10:40:22;;;;;;;10.27;2.50;;;;;;;;;;6370734;27;20055;-75
2022/02/08 10:43:32;;;;;;;7.82;2.50;;;;;;;;;;6370848;27;20047;-75
2022/02/08 10:46:38;;;;;;;6.35;2.03;;;;;;;;;;6370365;27;20047;-75
2022/02/08 10:49:42;;;;;;;6.43;2.20;;;;;;;;;;6369480;27;20054;-75
2022/02/08 10:52:46;;;;;;;10.55;3.40;;;;;;;;;;6369680;27;20123;-76
2022/02/08 10:55:57;;;;;;;4.80;1.83;;;;;;;;;;6368962;27;20508;-77
2022/02/08 10:59:14;;;;;;;7.53;2.13;;;;;;;;;;6366757;27;20107;-78
2022/02/08 11:02:24;;;;;;;6.38;1.95;;;;;;;;;;6367703;27;20039;-77
2022/02/08 11:05:39;;;;;;;6.53;2.30;;;;;;;;;;6367600;27;20142;-76
2022/02/08 11:08:55;;;;;;;7.45;2.20;;;;;;;;;;6367598;27;20043;-75
2022/02/08 11:12:08;;;;;;;7.30;1.98;;;;;;;;;;6369417;27;20046;-75
2022/02/08 11:15:29;;;;;;;67.85;27.60;;;;;;;;;;6368833;27;20375;-75
2022/02/08 11:18:39;;;;;;;5.70;1.95;;;;;;;;;;6369898;27;20126;-74
2022/02/08 11:21:48;;;;;;;4.72;1.85;;;;;;;;;;6370799;27;20513;-76
2022/02/08 11:24:59;;;;;;;4.63;2.05;;;;;;;;;;6369071;27;20513;-76
2022/02/08 11:28:06;;;;;;;8.90;2.30;;;;;;;;;;6369310;27;20077;-76
2022/02/08 11:31:20;;;;;;;7.45;2.20;;;;;;;;;;6367554;27;20399;-76
2022/02/08 11:45:21;;;;;;;8.55;2.00;;;;;;;;;;6368056;27;20413;-77
2022/02/08 11:51:53;;;;;;;9.40;2.75;;;;;;;;;;6335645;27;20078;-79
2022/02/08 11:58:26;;;;;;;6.70;2.28;;;;;;;;;;6366514;27;20061;-76
2022/02/08 12:01:42;;;;;;;7.60;2.20;;;;;;;;;;6367059;27;20050;-76
2022/02/08 12:05:09;;;;;;;4.30;1.70;;;;;;;;;;6365333;27;20060;-78
2022/02/08 12:08:14;;;;;;;5.88;2.28;;;;;;;;;;6364969;27;20425;-78
2022/02/08 12:11:33;;;;;;;5.55;2.22;;;;;;;;;;6364022;27;20126;-78
2022/02/08 12:55:21;;;;;;;11.07;2.90;;;;;;;;;;6336047;27;20066;-74
2022/02/08 12:58:48;;;;;;;10.25;2.58;;;;;;;;;;6365814;27;20063;-74
2022/02/08 14:03:48;;;;;;;6.75;2.20;;;;;;;;;;6367493;27;20043;-74
2022/02/08 14:06:58;;;;;;;7.63;1.92;;;;;;;;;;6372672;27;20517;-75
2022/02/08 14:10:41;;;;;;;7.95;2.00;;;;;;;;;;6358308;27;20473;-75
2022/02/08 14:14:04;;;;;;;4.88;1.50;;;;;;;;;;6372065;27;20069;-75
2022/02/08 14:17:29;;;;;;;6.05;2.17;;;;;;;;;;6371126;27;20504;-75
2022/02/08 14:20:57;;;;;;;6.10;1.80;;;;;;;;;;6370058;27;20129;-74
2022/02/08 14:24:15;;;;;;;6.75;1.73;;;;;;;;;;6372200;27;20077;-76
2022/02/08 14:30:45;;;;;;;5.88;1.85;;;;;;;;;;6371168;27;20104;-76
2022/02/08 15:11:14;;;;;;;9.32;2.50;;;;;;;;;;6369750;27;20070;-75
2022/02/08 15:14:23;;;;;;;8.15;1.98;;;;;;;;;;6368565;27;20053;-75
2022/02/08 15:17:27;;;;;;;6.65;1.70;;;;;;;;;;6369527;27;20058;-74
2022/02/08 15:20:30;;;;;;;5.57;2.13;;;;;;;;;;6370790;27;20434;-74
2022/02/08 15:23:34;;;;;;;7.47;2.08;;;;;;;;;;6369547;27;20126;-74
2022/02/08 15:26:43;;;;;;;4.10;1.75;;;;;;;;;;6368087;27;20056;-75
2022/02/08 15:29:49;;;;;;;5.10;1.83;;;;;;;;;;6370067;27;20053;-75
2022/02/08 15:32:52;;;;;;;4.68;1.65;;;;;;;;;;6369312;27;20404;-74
2022/02/08 15:36:01;;;;;;;7.07;1.90;;;;;;;;;;6369914;27;20051;-74
2022/02/08 15:39:07;;;;;;;5.22;1.63;;;;;;;;;;6367925;27;20110;-75
2022/02/08 15:42:13;;;;;;;7.57;1.67;;;;;;;;;;6370462;27;20047;-75
2022/02/08 15:45:22;;;;;;;9.68;2.40;;;;;;;;;;6368731;27;20606;-75
2022/02/08 15:48:26;;;;;;;5.00;1.92;;;;;;;;;;6369246;27;20451;-74
2022/02/08 15:51:38;;;;;;;6.88;1.63;;;;;;;;;;6368210;27;20273;-74
2022/02/08 15:54:49;;;;;;;8.23;2.08;;;;;;;;;;6370237;27;20482;-74
2022/02/08 15:58:06;;;;;;;5.70;1.83;;;;;;;;;;6367978;27;20039;-75
2022/02/08 16:01:15;;;;;;;6.50;2.00;;;;;;;;;;6368859;27;20068;-77
2022/02/08 16:07:48;;;;;;;6.15;1.55;;;;;;;;;;6368472;27;20100;-75
2022/02/08 16:11:02;;;;;;;4.82;1.55;;;;;;;;;;6367947;27;20039;-75
2022/02/08 16:14:14;;;;;;;5.15;1.50;;;;;;;;;;6367059;27;20088;-75
2022/02/08 16:17:29;;;;;;;4.38;1.60;;;;;;;;;;6367982;27;20046;-76
2022/02/08 16:24:02;;;;;;;8.35;1.73;;;;;;;;;;6362870;27;20047;-75
2022/02/08 16:27:19;;;;;;;4.85;1.60;;;;;;;;;;6366437;27;20214;-75
2022/02/08 16:54:27;;;;;;;3.78;1.52;;;;;;;;;;6366687;27;20054;-75
2022/02/08 16:57:37;;;;;;;7.75;1.88;;;;;;;;;;6366062;27;20577;-75
2022/02/08 17:00:44;;;;;;;6.63;1.70;;;;;;;;;;6366819;27;20073;-76
2022/02/08 17:03:52;;;;;;;6.47;2.08;;;;;;;;;;6367142;27;20104;-76
2022/02/08 17:06:57;;;;;;;8.52;2.17;;;;;;;;;;6349969;27;20049;-77
2022/02/08 17:10:04;;;;;;;23.45;12.07;;;;;;;;;;6367282;27;20043;-77
2022/02/08 17:13:19;;;;;;;7.68;2.00;;;;;;;;;;6368150;27;20485;-78
2022/02/08 17:16:32;;;;;;;8.07;1.92;;;;;;;;;;6368076;27;20050;-76
2022/02/08 17:46:36;;;;;;;6.88;1.88;;;;;;;;;;6371514;27;20051;-77
2022/02/08 17:49:43;;;;;;;8.50;1.67;;;;;;;;;;6370591;27;20126;-76
2022/02/08 17:52:50;;;;;;;4.05;1.70;;;;;;;;;;6372829;27;20043;-77
2022/02/08 17:55:53;;;;;;;8.38;2.30;;;;;;;;;;6373089;27;20122;-76
2022/02/08 17:58:58;;;;;;;6.95;2.22;;;;;;;;;;6371786;27;20810;-76
2022/02/08 18:02:04;;;;;;;9.13;2.05;;;;;;;;;;6354279;27;20054;-79
2022/02/08 18:05:09;;;;;;;4.47;1.95;;;;;;;;;;6372741;27;20039;-77
2022/02/08 18:08:19;;;;;;;4.50;1.48;;;;;;;;;;6371058;27;20131;-77
2022/02/08 18:11:28;;;;;;;4.13;1.70;;;;;;;;;;6369916;27;20070;-78
2022/02/08 18:14:34;;;;;;;6.75;2.15;;;;;;;;;;6371043;27;20505;-77
2022/02/08 18:17:42;;;;;;;5.85;1.58;;;;;;;;;;6372569;27;20552;-77
2022/02/08 18:20:51;;;;;;;4.95;1.75;;;;;;;;;;6371845;27;20051;-77
2022/02/08 19:03:18;;;;;;;6.35;1.55;;;;;;;;;;6370289;27;20100;-78
2022/02/08 19:12:10;;;;;;;6.00;1.60;;;;;;;;;;6365115;27;20055;-76
2022/02/08 19:18:43;;;;;;;5.70;1.50;;;;;;;;;;6369244;27;20473;-75
2022/02/08 19:21:47;;;;;;;4.97;1.77;;;;;;;;;;6370157;27;20043;-75
2022/02/08 19:24:51;;;;;;;4.30;1.50;;;;;;;;;;6368441;27;20531;-76
2022/02/08 19:27:57;;;;;;;4.68;1.40;;;;;;;;;;6370785;27;20039;-75
2022/02/08 19:31:02;;;;;;;5.13;1.48;;;;;;;;;;6370848;27;20070;-76
2022/02/08 19:34:08;;;;;;;6.93;1.63;;;;;;;;;;6369311;27;20047;-75
2022/02/08 19:37:15;;;;;;;6.47;1.38;;;;;;;;;;6370107;27;20122;-75
2022/02/08 19:40:23;;;;;;;3.08;1.17;;;;;;;;;;6370627;27;20050;-75
2022/02/08 19:43:30;;;;;;;5.47;1.20;;;;;;;;;;6369923;27;20122;-75
2022/02/08 19:46:35;;;;;;;2.55;0.90;;;;;;;;;;6367880;27;20783;-74
2022/02/08 19:49:41;;;;;;;4.93;1.45;;;;;;;;;;6368939;27;20405;-76
2022/02/08 19:52:45;;;;;;;3.38;1.05;;;;;;;;;;6368521;27;20405;-76
2022/02/08 19:55:59;;;;;;;3.15;0.95;;;;;;;;;;6367432;27;20051;-76
2022/02/08 19:59:03;;;;;;;3.33;1.25;;;;;;;;;;6367779;27;20196;-76
2022/02/08 20:02:12;;;;;;;3.90;1.60;;;;;;;;;;6369302;27;20089;-76
2022/02/08 20:05:16;;;;;;;3.50;1.65;;;;;;;;;;6369371;27;20046;-76
2022/02/08 20:08:26;;;;;;;;;;;;;;;;;;6369187;27;20082;-76
2022/02/08 20:11:29;;;;;;;9.18;1.70;;;;;;;;;;6369738;27;20041;-76
2022/02/08 20:14:34;;;;;;;4.70;1.80;;;;;;;;;;6369506;27;20047;-75
2022/02/08 20:17:38;;;;;;;7.25;1.40;;;;;;;;;;6368482;27;20417;-76
2022/02/08 20:20:45;;;;;;;2.83;1.50;;;;;;;;;;6369097;27;20362;-76
2022/02/08 20:23:52;;;;;;;3.50;1.30;;;;;;;;;;6369708;27;20414;-77
2022/02/08 20:27:33;;;;;;;2.40;1.10;;;;;;;;;;6367682;27;20100;-76
2022/02/08 20:30:29;;;;;;;5.32;1.23;;;;;;;;;;6366534;27;20066;-74
2022/02/08 20:33:40;;;;;;;2.83;1.30;;;;;;;;;;6367720;27;20035;-74
2022/02/08 20:36:43;;;;;;;16.13;2.38;;;;;;;;;;6369034;27;20095;-74
2022/02/08 20:39:47;;;;;;;2.35;1.00;;;;;;;;;;6366983;27;20401;-74
2022/02/08 20:42:55;;;;;;;18.70;8.85;;;;;;;;;;6368404;27;20066;-78
2022/02/08 20:45:59;;;;;;;3.30;1.70;;;;;;;;;;6369169;27;20138;-75
2022/02/08 20:49:05;;;;;;;4.13;1.65;;;;;;;;;;6367213;27;20039;-74
2022/02/08 20:52:08;;;;;;;;;;;;;;;;;;6366781;27;20161;-77
2022/02/08 20:55:16;;;;;;;4.72;1.48;;;;;;;;;;6367307;27;19924;-74
2022/02/08 20:58:25;;;;;;;5.13;1.38;;;;;;;;;;6368925;27;20469;-77
2022/02/08 21:01:29;;;;;;;3.47;1.33;;;;;;;;;;6366939;27;20049;-77
2022/02/08 21:04:53;;;;;;;5.07;1.40;;;;;;;;;;6367846;27;20039;-78
2022/02/08 21:07:57;;;;;;;2.40;1.45;;;;;;;;;;6368637;27;20107;-74
2022/02/08 21:11:03;;;;;;;2.03;1.40;;;;;;;;;;6366944;27;20051;-76
2022/02/08 21:14:11;;;;;;;3.90;1.40;;;;;;;;;;6366427;27;20047;-77
2022/02/08 21:17:16;;;;;;;5.70;1.58;;;;;;;;;;6350189;27;20054;-76
2022/02/08 21:20:21;;;;;;;2.97;1.50;;;;;;;;;;6367134;27;20051;-73
2022/02/08 21:23:39;;;;;;;3.95;1.60;;;;;;;;;;6365636;27;20054;-75
2022/02/08 21:26:48;;;;;;;2.30;1.42;;;;;;;;;;6367013;27;20050;-74
2022/02/08 21:30:00;;;;;;;3.92;1.40;;;;;;;;;;6366861;27;20050;-73
2022/02/08 21:50:00;;;;;;;4.30;1.60;;;;;;;;;;6363688;28;20524;-75
2022/02/08 21:53:09;;;;;;;3.63;1.42;;;;;;;;;;6363623;27;20047;-75
2022/02/08 21:56:16;;;;;;;2.50;1.40;;;;;;;;;;6363734;28;20112;-78
2022/02/08 21:59:21;;;;;;;2.85;1.50;;;;;;;;;;6366043;27;20051;-79
2022/02/08 22:02:24;;;;;;;4.63;1.55;;;;;;;;;;6364669;28;20043;-83
2022/02/08 22:05:28;;;;;;;2.47;1.48;;;;;;;;;;6365385;28;20122;-80
2022/02/08 22:08:37;;;;;;;2.65;1.65;;;;;;;;;;6367986;27;20050;-82
2022/02/08 22:18:41;;;;;;;3.58;1.90;;;;;;;;;;6312732;28;20054;-76
2022/02/08 22:21:50;;;;;;;3.13;1.60;;;;;;;;;;6367770;27;20378;-80
2022/02/08 22:25:16;;;;;;;2.47;1.45;;;;;;;;;;6368205;27;20122;-76
2022/02/08 22:28:31;;;;;;;4.03;1.67;;;;;;;;;;6371393;27;20040;-76
2022/02/08 22:31:38;;;;;;;3.75;1.48;;;;;;;;;;6371411;27;20043;-78
2022/02/08 22:34:47;;;;;;;3.65;1.40;;;;;;;;;;6372165;27;20397;-76
2022/02/08 22:38:03;;;;;;;6.40;2.65;;;;;;;;;;6370027;27;20054;-77
2022/02/08 22:41:14;;;;;;;2.92;1.55;;;;;;;;;;6369515;27;20043;-78
2022/02/08 22:44:24;;;;;;;4.00;2.47;;;;;;;;;;6370298;27;20508;-78
2022/02/08 22:47:28;;;;;;;3.95;2.10;;;;;;;;;;6370803;27;20100;-76
2022/02/08 22:50:32;;;;;;;6.30;2.90;;;;;;;;;;6370039;27;20629;-78
2022/02/08 22:53:35;;;;;;;3.08;1.30;;;;;;;;;;6355584;27;20042;-77
2022/02/08 22:56:42;;;;;;;3.63;1.90;;;;;;;;;;6361212;27;20035;-76
2022/02/08 22:59:45;;;;;;;3.53;1.60;;;;;;;;;;6380191;27;20121;-75
2022/02/08 23:02:50;;;;;;;2.90;1.70;;;;;;;;;;6371750;27;20061;-75
2022/02/08 23:05:54;;;;;;;3.80;1.60;;;;;;;;;;6357901;27;20035;-77
2022/02/08 23:09:01;;;;;;;1.87;1.27;;;;;;;;;;6376039;27;20103;-76
2022/02/08 23:15:46;;;;;;;2.13;1.17;;;;;;;;;;6364218;27;20123;-75
2022/02/08 23:38:58;;;;;;;1.10;1.00;;;;;;;;;;6346327;27;20171;-76
2022/02/08 23:42:04;;;;;;;5.72;3.03;;;;;;;;;;6362349;27;20270;-75
2022/02/08 23:45:10;;;;;;;4.43;1.75;;;;;;;;;;6365843;27;20054;-75
2022/02/08 23:48:20;;;;;;;2.70;1.33;;;;;;;;;;6368973;27;20050;-74
2022/02/08 23:51:24;;;;;;;2.80;1.52;;;;;;;;;;6369741;27;20050;-74
2022/02/08 23:54:31;;;;;;;2.28;1.35;;;;;;;;;;6371081;27;20050;-75
2022/02/08 23:57:34;;;;;;;2.35;1.70;;;;;;;;;;6377200;27;20046;-75
